sensor_id;sensor_type;location;lat;lon;timestamp;P1;durP1;ratioP1;P2;durP2;ratioP2
68457;SDS011;65384;52.016;5.428;2023-07-22T00:00:12;13.15;;;5.35;;
68457;SDS011;65384;52.016;5.428;2023-07-22T00:02:40;14.43;;;6.30;;
68457;SDS011;65384;52.016;5.428;2023-07-22T00:05:09;14.23;;;6.00;;
68457;SDS011;65384;52.016;5.428;2023-07-22T00:07:37;15.52;;;6.45;;
68457;SDS011;65384;52.016;5.428;2023-07-22T00:10:05;17.25;;;6.82;;
68457;SDS011;65384;52.016;5.428;2023-07-22T00:12:32;15.45;;;6.75;;
68457;SDS011;65384;52.016;5.428;2023-07-22T00:14:59;15.25;;;6.53;;
68457;SDS011;65384;52.016;5.428;2023-07-22T00:17:24;14.23;;;6.30;;
68457;SDS011;65384;52.016;5.428;2023-07-22T00:19:49;15.18;;;6.90;;
68457;SDS011;65384;52.016;5.428;2023-07-22T00:22:15;17.20;;;6.30;;
68457;SDS011;65384;52.016;5.428;2023-07-22T00:24:40;18.63;;;7.47;;
68457;SDS011;65384;52.016;5.428;2023-07-22T00:27:06;17.63;;;6.95;;
68457;SDS011;65384;52.016;5.428;2023-07-22T00:29:33;18.35;;;7.65;;
68457;SDS011;65384;52.016;5.428;2023-07-22T00:32:02;18.83;;;8.10;;
68457;SDS011;65384;52.016;5.428;2023-07-22T00:34:30;17.27;;;6.82;;
68457;SDS011;65384;52.016;5.428;2023-07-22T00:36:56;17.85;;;7.95;;
68457;SDS011;65384;52.016;5.428;2023-07-22T00:39:21;18.42;;;7.72;;
68457;SDS011;65384;52.016;5.428;2023-07-22T00:41:46;19.55;;;7.75;;
68457;SDS011;65384;52.016;5.428;2023-07-22T00:44:12;18.70;;;7.68;;
68457;SDS011;65384;52.016;5.428;2023-07-22T00:46:38;18.25;;;8.02;;
68457;SDS011;65384;52.016;5.428;2023-07-22T00:49:07;18.85;;;8.30;;
68457;SDS011;65384;52.016;5.428;2023-07-22T00:51:33;21.92;;;9.02;;
68457;SDS011;65384;52.016;5.428;2023-07-22T00:53:58;18.60;;;8.38;;
68457;SDS011;65384;52.016;5.428;2023-07-22T00:56:23;20.55;;;8.48;;
68457;SDS011;65384;52.016;5.428;2023-07-22T00:58:49;19.27;;;8.18;;
68457;SDS011;65384;52.016;5.428;2023-07-22T01:01:15;21.05;;;8.63;;
68457;SDS011;65384;52.016;5.428;2023-07-22T01:03:40;17.95;;;7.93;;
68457;SDS011;65384;52.016;5.428;2023-07-22T01:06:06;18.08;;;7.75;;
68457;SDS011;65384;52.016;5.428;2023-07-22T01:08:32;18.90;;;7.93;;
68457;SDS011;65384;52.016;5.428;2023-07-22T01:10:57;18.40;;;7.93;;
68457;SDS011;65384;52.016;5.428;2023-07-22T01:13:24;19.17;;;8.20;;
68457;SDS011;65384;52.016;5.428;2023-07-22T01:15:49;17.08;;;7.22;;
68457;SDS011;65384;52.016;5.428;2023-07-22T01:18:15;18.08;;;7.60;;
68457;SDS011;65384;52.016;5.428;2023-07-22T01:20:40;22.70;;;8.55;;
68457;SDS011;65384;52.016;5.428;2023-07-22T01:23:06;19.40;;;8.52;;
68457;SDS011;65384;52.016;5.428;2023-07-22T01:25:32;21.05;;;8.30;;
68457;SDS011;65384;52.016;5.428;2023-07-22T01:27:57;18.67;;;8.55;;
68457;SDS011;65384;52.016;5.428;2023-07-22T01:30:23;21.70;;;8.68;;
68457;SDS011;65384;52.016;5.428;2023-07-22T01:32:48;23.38;;;8.50;;
68457;SDS011;65384;52.016;5.428;2023-07-22T01:35:15;19.73;;;7.60;;
68457;SDS011;65384;52.016;5.428;2023-07-22T01:37:40;19.02;;;8.10;;
68457;SDS011;65384;52.016;5.428;2023-07-22T01:40:06;21.27;;;8.70;;
68457;SDS011;65384;52.016;5.428;2023-07-22T01:42:41;20.90;;;8.05;;
68457;SDS011;65384;52.016;5.428;2023-07-22T01:45:07;20.92;;;8.75;;
68457;SDS011;65384;52.016;5.428;2023-07-22T01:47:37;21.02;;;8.02;;
68457;SDS011;65384;52.016;5.428;2023-07-22T01:50:03;17.27;;;7.97;;
68457;SDS011;65384;52.016;5.428;2023-07-22T01:52:29;21.73;;;8.90;;
68457;SDS011;65384;52.016;5.428;2023-07-22T01:54:55;21.15;;;8.60;;
68457;SDS011;65384;52.016;5.428;2023-07-22T01:57:20;26.20;;;9.30;;
68457;SDS011;65384;52.016;5.428;2023-07-22T01:59:46;18.45;;;8.23;;
68457;SDS011;65384;52.016;5.428;2023-07-22T02:02:11;21.45;;;8.48;;
68457;SDS011;65384;52.016;5.428;2023-07-22T02:04:36;22.45;;;8.88;;
68457;SDS011;65384;52.016;5.428;2023-07-22T02:07:02;22.98;;;8.80;;
68457;SDS011;65384;52.016;5.428;2023-07-22T02:09:27;22.70;;;9.27;;
68457;SDS011;65384;52.016;5.428;2023-07-22T02:11:53;20.70;;;8.85;;
68457;SDS011;65384;52.016;5.428;2023-07-22T02:14:18;26.63;;;9.80;;
68457;SDS011;65384;52.016;5.428;2023-07-22T02:16:44;22.20;;;8.73;;
68457;SDS011;65384;52.016;5.428;2023-07-22T02:19:09;21.75;;;8.55;;
68457;SDS011;65384;52.016;5.428;2023-07-22T02:21:35;25.17;;;9.93;;
68457;SDS011;65384;52.016;5.428;2023-07-22T02:24:00;25.98;;;10.55;;
68457;SDS011;65384;52.016;5.428;2023-07-22T02:26:25;23.40;;;9.57;;
68457;SDS011;65384;52.016;5.428;2023-07-22T02:28:51;25.70;;;9.98;;
68457;SDS011;65384;52.016;5.428;2023-07-22T02:31:16;25.70;;;9.93;;
68457;SDS011;65384;52.016;5.428;2023-07-22T02:33:41;25.02;;;9.77;;
68457;SDS011;65384;52.016;5.428;2023-07-22T02:36:07;25.02;;;9.85;;
68457;SDS011;65384;52.016;5.428;2023-07-22T02:38:32;22.98;;;9.35;;
68457;SDS011;65384;52.016;5.428;2023-07-22T02:41:01;23.10;;;9.43;;
68457;SDS011;65384;52.016;5.428;2023-07-22T02:43:28;26.48;;;10.10;;
68457;SDS011;65384;52.016;5.428;2023-07-22T02:45:53;24.63;;;9.95;;
68457;SDS011;65384;52.016;5.428;2023-07-22T02:48:18;26.45;;;10.00;;
68457;SDS011;65384;52.016;5.428;2023-07-22T02:50:44;32.33;;;10.57;;
68457;SDS011;65384;52.016;5.428;2023-07-22T02:53:09;25.98;;;9.48;;
68457;SDS011;65384;52.016;5.428;2023-07-22T02:55:35;29.10;;;10.07;;
68457;SDS011;65384;52.016;5.428;2023-07-22T02:58:00;26.05;;;10.07;;
68457;SDS011;65384;52.016;5.428;2023-07-22T03:00:25;28.48;;;10.93;;
68457;SDS011;65384;52.016;5.428;2023-07-22T03:02:52;23.70;;;9.65;;
68457;SDS011;65384;52.016;5.428;2023-07-22T03:05:18;27.25;;;10.30;;
68457;SDS011;65384;52.016;5.428;2023-07-22T03:07:44;29.58;;;10.65;;
68457;SDS011;65384;52.016;5.428;2023-07-22T03:10:09;27.33;;;9.90;;
68457;SDS011;65384;52.016;5.428;2023-07-22T03:12:35;28.88;;;10.18;;
68457;SDS011;65384;52.016;5.428;2023-07-22T03:15:01;27.30;;;10.73;;
68457;SDS011;65384;52.016;5.428;2023-07-22T03:17:28;27.75;;;10.98;;
68457;SDS011;65384;52.016;5.428;2023-07-22T03:19:54;32.78;;;10.43;;
68457;SDS011;65384;52.016;5.428;2023-07-22T03:22:20;25.88;;;9.52;;
68457;SDS011;65384;52.016;5.428;2023-07-22T03:24:45;26.52;;;10.60;;
68457;SDS011;65384;52.016;5.428;2023-07-22T03:27:11;24.50;;;10.43;;
68457;SDS011;65384;52.016;5.428;2023-07-22T03:29:37;29.35;;;10.48;;
68457;SDS011;65384;52.016;5.428;2023-07-22T03:32:03;32.72;;;10.57;;
68457;SDS011;65384;52.016;5.428;2023-07-22T03:34:29;28.55;;;10.50;;
68457;SDS011;65384;52.016;5.428;2023-07-22T03:36:55;27.40;;;10.18;;
68457;SDS011;65384;52.016;5.428;2023-07-22T03:39:20;28.98;;;9.73;;
68457;SDS011;65384;52.016;5.428;2023-07-22T03:41:46;31.80;;;10.57;;
68457;SDS011;65384;52.016;5.428;2023-07-22T03:44:11;31.17;;;10.32;;
68457;SDS011;65384;52.016;5.428;2023-07-22T03:46:37;27.98;;;10.32;;
68457;SDS011;65384;52.016;5.428;2023-07-22T03:49:02;23.38;;;9.73;;
68457;SDS011;65384;52.016;5.428;2023-07-22T03:51:28;26.88;;;9.60;;
68457;SDS011;65384;52.016;5.428;2023-07-22T03:53:53;29.35;;;11.15;;
68457;SDS011;65384;52.016;5.428;2023-07-22T03:56:19;27.73;;;10.38;;
68457;SDS011;65384;52.016;5.428;2023-07-22T03:58:45;31.35;;;10.80;;
68457;SDS011;65384;52.016;5.428;2023-07-22T04:01:10;27.85;;;9.80;;
68457;SDS011;65384;52.016;5.428;2023-07-22T04:03:36;31.15;;;10.60;;
68457;SDS011;65384;52.016;5.428;2023-07-22T04:06:02;30.77;;;10.15;;
68457;SDS011;65384;52.016;5.428;2023-07-22T04:08:27;27.20;;;9.57;;
68457;SDS011;65384;52.016;5.428;2023-07-22T04:10:53;27.90;;;10.35;;
68457;SDS011;65384;52.016;5.428;2023-07-22T04:13:18;29.92;;;10.50;;
68457;SDS011;65384;52.016;5.428;2023-07-22T04:15:44;31.40;;;10.27;;
68457;SDS011;65384;52.016;5.428;2023-07-22T04:18:09;31.42;;;10.70;;
68457;SDS011;65384;52.016;5.428;2023-07-22T04:20:35;26.55;;;9.73;;
68457;SDS011;65384;52.016;5.428;2023-07-22T04:23:00;29.15;;;10.05;;
68457;SDS011;65384;52.016;5.428;2023-07-22T04:25:26;26.38;;;10.30;;
68457;SDS011;65384;52.016;5.428;2023-07-22T04:27:51;26.08;;;9.43;;
68457;SDS011;65384;52.016;5.428;2023-07-22T04:30:16;27.20;;;9.85;;
68457;SDS011;65384;52.016;5.428;2023-07-22T04:32:47;26.33;;;9.82;;
68457;SDS011;65384;52.016;5.428;2023-07-22T04:35:14;25.80;;;10.38;;
68457;SDS011;65384;52.016;5.428;2023-07-22T04:37:42;28.08;;;9.95;;
68457;SDS011;65384;52.016;5.428;2023-07-22T04:40:07;26.15;;;10.13;;
68457;SDS011;65384;52.016;5.428;2023-07-22T04:42:36;26.25;;;10.80;;
68457;SDS011;65384;52.016;5.428;2023-07-22T04:45:02;29.65;;;11.35;;
68457;SDS011;65384;52.016;5.428;2023-07-22T04:47:28;29.20;;;10.38;;
68457;SDS011;65384;52.016;5.428;2023-07-22T04:49:53;25.85;;;10.35;;
68457;SDS011;65384;52.016;5.428;2023-07-22T04:52:18;26.50;;;10.32;;
68457;SDS011;65384;52.016;5.428;2023-07-22T04:54:44;28.90;;;11.13;;
68457;SDS011;65384;52.016;5.428;2023-07-22T04:57:12;25.90;;;10.63;;
68457;SDS011;65384;52.016;5.428;2023-07-22T04:59:37;29.38;;;10.43;;
68457;SDS011;65384;52.016;5.428;2023-07-22T05:02:03;27.77;;;10.23;;
68457;SDS011;65384;52.016;5.428;2023-07-22T05:04:29;26.23;;;10.40;;
68457;SDS011;65384;52.016;5.428;2023-07-22T05:06:54;29.05;;;10.38;;
68457;SDS011;65384;52.016;5.428;2023-07-22T05:09:20;29.08;;;11.15;;
68457;SDS011;65384;52.016;5.428;2023-07-22T05:11:45;27.42;;;10.40;;
68457;SDS011;65384;52.016;5.428;2023-07-22T05:14:10;31.98;;;11.18;;
68457;SDS011;65384;52.016;5.428;2023-07-22T05:16:36;29.98;;;11.25;;
68457;SDS011;65384;52.016;5.428;2023-07-22T05:19:01;28.40;;;10.38;;
68457;SDS011;65384;52.016;5.428;2023-07-22T05:21:26;30.17;;;11.27;;
68457;SDS011;65384;52.016;5.428;2023-07-22T05:23:52;30.15;;;11.07;;
68457;SDS011;65384;52.016;5.428;2023-07-22T05:26:17;32.60;;;11.30;;
68457;SDS011;65384;52.016;5.428;2023-07-22T05:28:42;27.42;;;11.35;;
68457;SDS011;65384;52.016;5.428;2023-07-22T05:31:08;29.55;;;10.90;;
68457;SDS011;65384;52.016;5.428;2023-07-22T05:33:33;26.38;;;10.60;;
68457;SDS011;65384;52.016;5.428;2023-07-22T05:35:59;29.73;;;11.23;;
68457;SDS011;65384;52.016;5.428;2023-07-22T05:38:24;36.28;;;12.15;;
68457;SDS011;65384;52.016;5.428;2023-07-22T05:40:51;33.25;;;11.63;;
68457;SDS011;65384;52.016;5.428;2023-07-22T05:43:17;31.38;;;11.85;;
68457;SDS011;65384;52.016;5.428;2023-07-22T05:45:42;33.00;;;12.02;;
68457;SDS011;65384;52.016;5.428;2023-07-22T05:48:08;38.67;;;12.73;;
68457;SDS011;65384;52.016;5.428;2023-07-22T05:50:33;35.90;;;12.60;;
68457;SDS011;65384;52.016;5.428;2023-07-22T05:52:59;30.10;;;12.00;;
68457;SDS011;65384;52.016;5.428;2023-07-22T05:55:24;31.33;;;12.07;;
68457;SDS011;65384;52.016;5.428;2023-07-22T05:57:50;35.22;;;11.45;;
68457;SDS011;65384;52.016;5.428;2023-07-22T06:00:15;34.05;;;12.20;;
68457;SDS011;65384;52.016;5.428;2023-07-22T06:02:41;33.42;;;12.68;;
68457;SDS011;65384;52.016;5.428;2023-07-22T06:05:06;31.45;;;11.85;;
68457;SDS011;65384;52.016;5.428;2023-07-22T06:07:32;35.83;;;12.85;;
68457;SDS011;65384;52.016;5.428;2023-07-22T06:09:58;31.83;;;12.75;;
68457;SDS011;65384;52.016;5.428;2023-07-22T06:12:23;34.67;;;12.95;;
68457;SDS011;65384;52.016;5.428;2023-07-22T06:14:49;35.85;;;13.25;;
68457;SDS011;65384;52.016;5.428;2023-07-22T06:17:15;39.15;;;14.02;;
68457;SDS011;65384;52.016;5.428;2023-07-22T06:19:40;36.60;;;13.23;;
68457;SDS011;65384;52.016;5.428;2023-07-22T06:22:05;35.42;;;13.23;;
68457;SDS011;65384;52.016;5.428;2023-07-22T06:24:31;31.35;;;13.10;;
68457;SDS011;65384;52.016;5.428;2023-07-22T06:26:56;37.47;;;12.82;;
68457;SDS011;65384;52.016;5.428;2023-07-22T06:29:21;34.97;;;12.52;;
68457;SDS011;65384;52.016;5.428;2023-07-22T06:31:47;34.78;;;13.82;;
68457;SDS011;65384;52.016;5.428;2023-07-22T06:34:12;39.42;;;13.45;;
68457;SDS011;65384;52.016;5.428;2023-07-22T06:36:38;34.78;;;13.80;;
68457;SDS011;65384;52.016;5.428;2023-07-22T06:39:03;35.10;;;13.57;;
68457;SDS011;65384;52.016;5.428;2023-07-22T06:41:29;31.02;;;13.07;;
68457;SDS011;65384;52.016;5.428;2023-07-22T06:43:54;33.55;;;13.27;;
68457;SDS011;65384;52.016;5.428;2023-07-22T06:46:20;30.13;;;13.35;;
68457;SDS011;65384;52.016;5.428;2023-07-22T06:48:46;30.38;;;12.52;;
68457;SDS011;65384;52.016;5.428;2023-07-22T06:51:12;33.72;;;12.70;;
68457;SDS011;65384;52.016;5.428;2023-07-22T06:53:37;30.88;;;12.27;;
68457;SDS011;65384;52.016;5.428;2023-07-22T06:56:03;27.30;;;11.60;;
68457;SDS011;65384;52.016;5.428;2023-07-22T06:58:29;30.63;;;11.73;;
68457;SDS011;65384;52.016;5.428;2023-07-22T07:00:54;26.02;;;11.30;;
68457;SDS011;65384;52.016;5.428;2023-07-22T07:03:20;27.23;;;12.43;;
68457;SDS011;65384;52.016;5.428;2023-07-22T07:05:55;28.95;;;11.55;;
68457;SDS011;65384;52.016;5.428;2023-07-22T07:08:22;27.88;;;12.40;;
68457;SDS011;65384;52.016;5.428;2023-07-22T07:10:48;25.45;;;11.55;;
68457;SDS011;65384;52.016;5.428;2023-07-22T07:13:14;27.65;;;11.60;;
68457;SDS011;65384;52.016;5.428;2023-07-22T07:15:39;24.02;;;10.30;;
68457;SDS011;65384;52.016;5.428;2023-07-22T07:18:05;25.73;;;10.98;;
68457;SDS011;65384;52.016;5.428;2023-07-22T07:20:30;27.48;;;11.48;;
68457;SDS011;65384;52.016;5.428;2023-07-22T07:22:56;27.08;;;11.10;;
68457;SDS011;65384;52.016;5.428;2023-07-22T07:25:21;25.52;;;10.68;;
68457;SDS011;65384;52.016;5.428;2023-07-22T07:27:47;24.75;;;11.30;;
68457;SDS011;65384;52.016;5.428;2023-07-22T07:30:12;24.92;;;10.73;;
68457;SDS011;65384;52.016;5.428;2023-07-22T07:32:37;22.55;;;9.88;;
68457;SDS011;65384;52.016;5.428;2023-07-22T07:35:03;23.70;;;10.80;;
68457;SDS011;65384;52.016;5.428;2023-07-22T07:37:29;25.83;;;11.23;;
68457;SDS011;65384;52.016;5.428;2023-07-22T07:39:54;24.35;;;9.45;;
68457;SDS011;65384;52.016;5.428;2023-07-22T07:42:24;20.33;;;9.27;;
68457;SDS011;65384;52.016;5.428;2023-07-22T07:44:51;20.33;;;9.25;;
68457;SDS011;65384;52.016;5.428;2023-07-22T07:47:16;19.13;;;8.80;;
68457;SDS011;65384;52.016;5.428;2023-07-22T07:49:42;20.83;;;8.35;;
68457;SDS011;65384;52.016;5.428;2023-07-22T07:52:07;17.70;;;9.00;;
68457;SDS011;65384;52.016;5.428;2023-07-22T07:54:32;23.95;;;8.65;;
68457;SDS011;65384;52.016;5.428;2023-07-22T07:56:58;19.98;;;9.23;;
68457;SDS011;65384;52.016;5.428;2023-07-22T07:59:23;20.27;;;8.70;;
68457;SDS011;65384;52.016;5.428;2023-07-22T08:01:49;18.65;;;8.50;;
68457;SDS011;65384;52.016;5.428;2023-07-22T08:04:14;19.73;;;8.73;;
68457;SDS011;65384;52.016;5.428;2023-07-22T08:06:42;19.85;;;8.18;;
68457;SDS011;65384;52.016;5.428;2023-07-22T08:09:07;18.20;;;8.10;;
68457;SDS011;65384;52.016;5.428;2023-07-22T08:11:35;19.50;;;7.40;;
68457;SDS011;65384;52.016;5.428;2023-07-22T08:14:02;15.32;;;7.30;;
68457;SDS011;65384;52.016;5.428;2023-07-22T08:16:27;16.85;;;7.10;;
68457;SDS011;65384;52.016;5.428;2023-07-22T08:18:53;16.13;;;7.28;;
68457;SDS011;65384;52.016;5.428;2023-07-22T08:21:18;14.85;;;7.70;;
68457;SDS011;65384;52.016;5.428;2023-07-22T08:23:45;17.63;;;7.57;;
68457;SDS011;65384;52.016;5.428;2023-07-22T08:26:11;16.27;;;7.18;;
68457;SDS011;65384;52.016;5.428;2023-07-22T08:28:37;18.48;;;7.70;;
68457;SDS011;65384;52.016;5.428;2023-07-22T08:31:03;20.88;;;7.43;;
68457;SDS011;65384;52.016;5.428;2023-07-22T08:33:28;17.08;;;7.28;;
68457;SDS011;65384;52.016;5.428;2023-07-22T08:35:54;14.98;;;6.57;;
68457;SDS011;65384;52.016;5.428;2023-07-22T08:38:21;14.90;;;6.65;;
68457;SDS011;65384;52.016;5.428;2023-07-22T08:40:50;16.50;;;6.80;;
68457;SDS011;65384;52.016;5.428;2023-07-22T08:43:16;13.88;;;6.65;;
68457;SDS011;65384;52.016;5.428;2023-07-22T08:45:44;13.60;;;5.88;;
68457;SDS011;65384;52.016;5.428;2023-07-22T08:48:11;15.90;;;6.22;;
68457;SDS011;65384;52.016;5.428;2023-07-22T08:51:02;15.90;;;6.53;;
68457;SDS011;65384;52.016;5.428;2023-07-22T08:53:29;13.55;;;6.18;;
68457;SDS011;65384;52.016;5.428;2023-07-22T08:55:55;13.38;;;6.82;;
68457;SDS011;65384;52.016;5.428;2023-07-22T08:58:21;15.48;;;6.85;;
68457;SDS011;65384;52.016;5.428;2023-07-22T09:00:47;15.10;;;6.53;;
68457;SDS011;65384;52.016;5.428;2023-07-22T09:03:13;12.15;;;6.40;;
68457;SDS011;65384;52.016;5.428;2023-07-22T09:05:38;12.55;;;6.05;;
68457;SDS011;65384;52.016;5.428;2023-07-22T09:08:06;17.13;;;6.95;;
68457;SDS011;65384;52.016;5.428;2023-07-22T09:10:32;12.65;;;6.35;;
68457;SDS011;65384;52.016;5.428;2023-07-22T09:12:59;19.48;;;5.72;;
68457;SDS011;65384;52.016;5.428;2023-07-22T09:15:25;15.07;;;6.07;;
68457;SDS011;65384;52.016;5.428;2023-07-22T09:17:51;13.05;;;5.32;;
68457;SDS011;65384;52.016;5.428;2023-07-22T09:20:17;12.85;;;5.97;;
68457;SDS011;65384;52.016;5.428;2023-07-22T09:22:46;14.85;;;5.70;;
68457;SDS011;65384;52.016;5.428;2023-07-22T09:25:19;15.43;;;6.05;;
68457;SDS011;65384;52.016;5.428;2023-07-22T09:27:46;17.50;;;6.28;;
68457;SDS011;65384;52.016;5.428;2023-07-22T09:32:54;12.05;;;5.75;;
68457;SDS011;65384;52.016;5.428;2023-07-22T09:35:21;12.23;;;6.00;;
68457;SDS011;65384;52.016;5.428;2023-07-22T09:37:47;13.85;;;6.32;;
68457;SDS011;65384;52.016;5.428;2023-07-22T09:40:17;14.80;;;5.93;;
68457;SDS011;65384;52.016;5.428;2023-07-22T09:42:48;15.13;;;6.53;;
68457;SDS011;65384;52.016;5.428;2023-07-22T09:45:15;13.80;;;6.40;;
68457;SDS011;65384;52.016;5.428;2023-07-22T09:47:48;14.98;;;6.93;;
68457;SDS011;65384;52.016;5.428;2023-07-22T09:50:19;12.70;;;7.00;;
68457;SDS011;65384;52.016;5.428;2023-07-22T09:52:53;11.88;;;6.30;;
68457;SDS011;65384;52.016;5.428;2023-07-22T09:55:29;14.35;;;6.95;;
68457;SDS011;65384;52.016;5.428;2023-07-22T09:57:56;15.30;;;6.53;;
68457;SDS011;65384;52.016;5.428;2023-07-22T10:00:30;12.57;;;6.32;;
68457;SDS011;65384;52.016;5.428;2023-07-22T10:02:57;11.75;;;5.90;;
68457;SDS011;65384;52.016;5.428;2023-07-22T10:05:24;13.95;;;6.03;;
68457;SDS011;65384;52.016;5.428;2023-07-22T10:07:51;12.00;;;6.50;;
68457;SDS011;65384;52.016;5.428;2023-07-22T10:10:29;10.05;;;5.97;;
68457;SDS011;65384;52.016;5.428;2023-07-22T10:12:56;11.68;;;5.55;;
68457;SDS011;65384;52.016;5.428;2023-07-22T10:15:23;8.80;;;4.75;;
68457;SDS011;65384;52.016;5.428;2023-07-22T10:17:50;14.70;;;4.68;;
68457;SDS011;65384;52.016;5.428;2023-07-22T10:20:16;8.90;;;4.60;;
68457;SDS011;65384;52.016;5.428;2023-07-22T10:22:44;9.90;;;4.78;;
68457;SDS011;65384;52.016;5.428;2023-07-22T10:25:12;10.00;;;5.22;;
68457;SDS011;65384;52.016;5.428;2023-07-22T10:27:41;10.65;;;5.75;;
68457;SDS011;65384;52.016;5.428;2023-07-22T10:30:10;11.10;;;5.60;;
68457;SDS011;65384;52.016;5.428;2023-07-22T10:32:37;11.63;;;5.10;;
68457;SDS011;65384;52.016;5.428;2023-07-22T10:35:04;14.25;;;5.50;;
68457;SDS011;65384;52.016;5.428;2023-07-22T10:37:30;12.18;;;5.25;;
68457;SDS011;65384;52.016;5.428;2023-07-22T10:40:01;10.55;;;4.88;;
68457;SDS011;65384;52.016;5.428;2023-07-22T10:43:05;7.97;;;4.78;;
68457;SDS011;65384;52.016;5.428;2023-07-22T10:45:32;9.27;;;4.30;;
68457;SDS011;65384;52.016;5.428;2023-07-22T10:48:02;9.55;;;4.88;;
68457;SDS011;65384;52.016;5.428;2023-07-22T10:50:41;10.30;;;5.05;;
68457;SDS011;65384;52.016;5.428;2023-07-22T10:53:11;11.13;;;4.80;;
68457;SDS011;65384;52.016;5.428;2023-07-22T11:14:25;10.70;;;5.07;;
68457;SDS011;65384;52.016;5.428;2023-07-22T11:16:52;10.02;;;5.15;;
68457;SDS011;65384;52.016;5.428;2023-07-22T11:19:19;11.25;;;5.32;;
68457;SDS011;65384;52.016;5.428;2023-07-22T11:21:45;10.77;;;5.38;;
68457;SDS011;65384;52.016;5.428;2023-07-22T11:24:13;12.52;;;5.50;;
68457;SDS011;65384;52.016;5.428;2023-07-22T11:26:39;10.68;;;5.47;;
68457;SDS011;65384;52.016;5.428;2023-07-22T11:29:05;7.82;;;5.38;;
68457;SDS011;65384;52.016;5.428;2023-07-22T11:31:32;14.07;;;5.95;;
68457;SDS011;65384;52.016;5.428;2023-07-22T11:33:59;7.25;;;5.10;;
68457;SDS011;65384;52.016;5.428;2023-07-22T11:36:25;10.10;;;5.40;;
68457;SDS011;65384;52.016;5.428;2023-07-22T11:38:51;10.80;;;5.22;;
68457;SDS011;65384;52.016;5.428;2023-07-22T11:41:17;14.32;;;5.72;;
68457;SDS011;65384;52.016;5.428;2023-07-22T11:43:42;10.55;;;5.78;;
68457;SDS011;65384;52.016;5.428;2023-07-22T11:46:08;15.40;;;5.60;;
68457;SDS011;65384;52.016;5.428;2023-07-22T11:48:33;8.65;;;5.30;;
68457;SDS011;65384;52.016;5.428;2023-07-22T11:50:59;9.65;;;5.35;;
68457;SDS011;65384;52.016;5.428;2023-07-22T11:53:28;10.05;;;5.35;;
68457;SDS011;65384;52.016;5.428;2023-07-22T11:55:56;14.80;;;5.57;;
68457;SDS011;65384;52.016;5.428;2023-07-22T11:58:25;13.63;;;6.82;;
68457;SDS011;65384;52.016;5.428;2023-07-22T12:01:10;17.73;;;7.97;;
68457;SDS011;65384;52.016;5.428;2023-07-22T12:03:36;14.63;;;8.20;;
68457;SDS011;65384;52.016;5.428;2023-07-22T12:06:02;14.55;;;8.95;;
68457;SDS011;65384;52.016;5.428;2023-07-22T12:08:28;16.10;;;9.35;;
68457;SDS011;65384;52.016;5.428;2023-07-22T12:11:02;19.55;;;10.13;;
68457;SDS011;65384;52.016;5.428;2023-07-22T12:13:29;16.55;;;9.95;;
68457;SDS011;65384;52.016;5.428;2023-07-22T12:16:01;16.88;;;9.80;;
68457;SDS011;65384;52.016;5.428;2023-07-22T12:18:27;14.82;;;8.02;;
68457;SDS011;65384;52.016;5.428;2023-07-22T12:20:53;14.27;;;8.60;;
68457;SDS011;65384;52.016;5.428;2023-07-22T12:23:18;13.10;;;8.68;;
68457;SDS011;65384;52.016;5.428;2023-07-22T12:25:43;12.07;;;8.00;;
68457;SDS011;65384;52.016;5.428;2023-07-22T12:28:09;13.60;;;8.10;;
68457;SDS011;65384;52.016;5.428;2023-07-22T12:30:36;12.43;;;7.78;;
68457;SDS011;65384;52.016;5.428;2023-07-22T12:33:01;14.20;;;8.68;;
68457;SDS011;65384;52.016;5.428;2023-07-22T12:35:27;16.45;;;9.23;;
68457;SDS011;65384;52.016;5.428;2023-07-22T12:37:52;12.85;;;8.43;;
68457;SDS011;65384;52.016;5.428;2023-07-22T12:40:18;13.43;;;7.95;;
68457;SDS011;65384;52.016;5.428;2023-07-22T12:42:43;13.23;;;8.32;;
68457;SDS011;65384;52.016;5.428;2023-07-22T12:45:09;12.77;;;7.80;;
68457;SDS011;65384;52.016;5.428;2023-07-22T12:47:35;14.25;;;8.43;;
68457;SDS011;65384;52.016;5.428;2023-07-22T12:50:01;11.88;;;7.10;;
68457;SDS011;65384;52.016;5.428;2023-07-22T12:52:27;15.48;;;7.07;;
68457;SDS011;65384;52.016;5.428;2023-07-22T12:54:52;10.77;;;6.00;;
68457;SDS011;65384;52.016;5.428;2023-07-22T12:57:18;12.77;;;6.45;;
68457;SDS011;65384;52.016;5.428;2023-07-22T12:59:43;9.88;;;6.60;;
68457;SDS011;65384;52.016;5.428;2023-07-22T13:02:09;9.57;;;5.80;;
68457;SDS011;65384;52.016;5.428;2023-07-22T13:04:34;11.05;;;6.25;;
68457;SDS011;65384;52.016;5.428;2023-07-22T13:06:59;10.90;;;5.95;;
68457;SDS011;65384;52.016;5.428;2023-07-22T13:09:25;8.50;;;5.43;;
68457;SDS011;65384;52.016;5.428;2023-07-22T13:11:50;9.60;;;4.95;;
68457;SDS011;65384;52.016;5.428;2023-07-22T13:14:16;15.50;;;5.35;;
68457;SDS011;65384;52.016;5.428;2023-07-22T13:16:43;9.90;;;5.10;;
68457;SDS011;65384;52.016;5.428;2023-07-22T13:19:08;7.15;;;4.13;;
68457;SDS011;65384;52.016;5.428;2023-07-22T13:21:34;10.10;;;4.85;;
68457;SDS011;65384;52.016;5.428;2023-07-22T13:23:59;9.32;;;4.80;;
68457;SDS011;65384;52.016;5.428;2023-07-22T13:26:25;11.68;;;4.28;;
68457;SDS011;65384;52.016;5.428;2023-07-22T13:28:50;9.80;;;4.03;;
68457;SDS011;65384;52.016;5.428;2023-07-22T13:31:17;10.05;;;4.25;;
68457;SDS011;65384;52.016;5.428;2023-07-22T13:33:42;9.18;;;4.18;;
68457;SDS011;65384;52.016;5.428;2023-07-22T13:36:07;8.35;;;4.05;;
68457;SDS011;65384;52.016;5.428;2023-07-22T13:38:34;10.02;;;4.55;;
68457;SDS011;65384;52.016;5.428;2023-07-22T13:40:59;8.88;;;4.50;;
68457;SDS011;65384;52.016;5.428;2023-07-22T13:43:25;7.53;;;4.40;;
68457;SDS011;65384;52.016;5.428;2023-07-22T13:45:52;9.55;;;4.18;;
68457;SDS011;65384;52.016;5.428;2023-07-22T13:48:17;6.97;;;3.80;;
68457;SDS011;65384;52.016;5.428;2023-07-22T13:50:42;6.32;;;3.63;;
68457;SDS011;65384;52.016;5.428;2023-07-22T13:53:08;8.65;;;3.67;;
68457;SDS011;65384;52.016;5.428;2023-07-22T13:55:33;8.70;;;4.10;;
68457;SDS011;65384;52.016;5.428;2023-07-22T13:57:59;7.60;;;3.55;;
68457;SDS011;65384;52.016;5.428;2023-07-22T14:00:24;6.63;;;3.20;;
68457;SDS011;65384;52.016;5.428;2023-07-22T14:02:49;6.93;;;3.30;;
68457;SDS011;65384;52.016;5.428;2023-07-22T14:05:15;8.93;;;3.55;;
68457;SDS011;65384;52.016;5.428;2023-07-22T14:07:40;6.63;;;3.22;;
68457;SDS011;65384;52.016;5.428;2023-07-22T14:10:05;8.80;;;3.28;;
68457;SDS011;65384;52.016;5.428;2023-07-22T14:12:31;5.63;;;3.20;;
68457;SDS011;65384;52.016;5.428;2023-07-22T14:14:57;8.95;;;3.05;;
68457;SDS011;65384;52.016;5.428;2023-07-22T14:17:22;7.22;;;2.95;;
68457;SDS011;65384;52.016;5.428;2023-07-22T14:19:47;4.63;;;2.90;;
68457;SDS011;65384;52.016;5.428;2023-07-22T14:22:13;6.35;;;2.85;;
68457;SDS011;65384;52.016;5.428;2023-07-22T14:24:38;5.40;;;2.85;;
68457;SDS011;65384;52.016;5.428;2023-07-22T14:27:04;4.53;;;2.70;;
68457;SDS011;65384;52.016;5.428;2023-07-22T14:29:29;7.03;;;2.80;;
68457;SDS011;65384;52.016;5.428;2023-07-22T14:31:55;7.70;;;2.83;;
68457;SDS011;65384;52.016;5.428;2023-07-22T14:34:22;7.15;;;2.67;;
68457;SDS011;65384;52.016;5.428;2023-07-22T14:36:47;7.07;;;2.83;;
68457;SDS011;65384;52.016;5.428;2023-07-22T14:39:12;11.10;;;2.60;;
68457;SDS011;65384;52.016;5.428;2023-07-22T14:41:40;5.05;;;2.30;;
68457;SDS011;65384;52.016;5.428;2023-07-22T14:44:05;6.65;;;2.60;;
68457;SDS011;65384;52.016;5.428;2023-07-22T14:46:31;4.82;;;2.33;;
68457;SDS011;65384;52.016;5.428;2023-07-22T14:48:56;5.10;;;2.45;;